sensor_id;sensor_type;location;lat;lon;timestamp;P1;P2;P0
74430;PMS7003;62863;52.062;23.764;2024-01-10T00:03:01;41.6;33.4;22
74430;PMS7003;62863;52.062;23.764;2024-01-10T00:07:59;46.6;39.6;25.6
74430;PMS7003;62863;52.062;23.764;2024-01-10T00:12:37;49.2;40.6;24.2
74430;PMS7003;62863;52.062;23.764;2024-01-10T00:17:30;42.5;36;24.3
74430;PMS7003;62863;52.062;23.764;2024-01-10T00:23:13;48.4;39.6;26.2
74430;PMS7003;62863;52.062;23.764;2024-01-10T00:27:29;35.4;30.6;18
74430;PMS7003;62863;52.062;23.764;2024-01-10T00:32:29;44;37;23.8
74430;PMS7003;62863;52.062;23.764;2024-01-10T00:37:35;48.2;42.2;28
74430;PMS7003;62863;52.062;23.764;2024-01-10T00:43:03;65.4;51.6;31.2
74430;PMS7003;62863;52.062;23.764;2024-01-10T00:48:11;61;50.8;31.4
74430;PMS7003;62863;52.062;23.764;2024-01-10T00:53:01;50.2;40.2;25.6
74430;PMS7003;62863;52.062;23.764;2024-01-10T00:58:00;47.2;41.2;25.4
74430;PMS7003;62863;52.062;23.764;2024-01-10T01:02:32;50.2;42;26.8
74430;PMS7003;62863;52.062;23.764;2024-01-10T01:07:37;42.6;34.4;21.2
74430;PMS7003;62863;52.062;23.764;2024-01-10T01:13:13;44.8;37.8;25
74430;PMS7003;62863;52.062;23.764;2024-01-10T01:17:41;47.3;41;25.3
74430;PMS7003;62863;52.062;23.764;2024-01-10T01:22:35;70.8;54;32
74430;PMS7003;62863;52.062;23.764;2024-01-10T01:27:35;82.4;61.2;36.2
74430;PMS7003;62863;52.062;23.764;2024-01-10T01:33:03;63.6;50.6;31.8
74430;PMS7003;62863;52.062;23.764;2024-01-10T01:38:13;54.8;47;30.2
74430;PMS7003;62863;52.062;23.764;2024-01-10T01:43:16;49.2;41.6;24.6
74430;PMS7003;62863;52.062;23.764;2024-01-10T01:48:11;47.6;40.2;26.2
74430;PMS7003;62863;52.062;23.764;2024-01-10T01:52:59;48;40;25.8
74430;PMS7003;62863;52.062;23.764;2024-01-10T01:57:37;44.4;38.6;26
74430;PMS7003;62863;52.062;23.764;2024-01-10T02:03:13;49.6;44;27
74430;PMS7003;62863;52.062;23.764;2024-01-10T02:07:49;48.2;37.8;23.2
74430;PMS7003;62863;52.062;23.764;2024-01-10T02:12:37;45.8;39.6;24.6
74430;PMS7003;62863;52.062;23.764;2024-01-10T02:17:29;49.5;40.5;25.3
74430;PMS7003;62863;52.062;23.764;2024-01-10T02:23:01;49.6;43;25
74430;PMS7003;62863;52.062;23.764;2024-01-10T02:28:15;68;52.6;31.6
74430;PMS7003;62863;52.062;23.764;2024-01-10T02:32:59;67.6;51.6;33.2
74430;PMS7003;62863;52.062;23.764;2024-01-10T02:38:00;70;54;34
74430;PMS7003;62863;52.062;23.764;2024-01-10T02:42:57;68.8;53.2;33
74430;PMS7003;62863;52.062;23.764;2024-01-10T02:47:49;61.8;49.2;30.6
74430;PMS7003;62863;52.062;23.764;2024-01-10T02:53:11;51;43;26.6
74430;PMS7003;62863;52.062;23.764;2024-01-10T02:57:37;50.8;43.4;27.2
74430;PMS7003;62863;52.062;23.764;2024-01-10T03:02:29;44;39.6;27.4
74430;PMS7003;62863;52.062;23.764;2024-01-10T03:07:35;45.2;40;24.6
74430;PMS7003;62863;52.062;23.764;2024-01-10T03:13:01;47;37.4;22.8
74430;PMS7003;62863;52.062;23.764;2024-01-10T03:18:11;52.8;43.6;28.2
74430;PMS7003;62863;52.062;23.764;2024-01-10T03:23:05;48.3;41.5;26.3
74430;PMS7003;62863;52.062;23.764;2024-01-10T03:27:57;49.2;43.4;28
74430;PMS7003;62863;52.062;23.764;2024-01-10T03:32:43;47.8;39.8;24.4
74430;PMS7003;62863;52.062;23.764;2024-01-10T03:37:29;55.6;46.2;28
74430;PMS7003;62863;52.062;23.764;2024-01-10T03:43:07;60;47;28
74430;PMS7003;62863;52.062;23.764;2024-01-10T03:47:29;50;42;25.8
74430;PMS7003;62863;52.062;23.764;2024-01-10T03:52:35;54.8;43.6;28
74430;PMS7003;62863;52.062;23.764;2024-01-10T03:57:29;51.6;43;26.8
74430;PMS7003;62863;52.062;23.764;2024-01-10T04:03:01;50.8;44.2;27.4
74430;PMS7003;62863;52.062;23.764;2024-01-10T04:07:51;49.4;43.2;27.6
74430;PMS7003;62863;52.062;23.764;2024-01-10T04:13:01;56.8;45.6;29.2
74430;PMS7003;62863;52.062;23.764;2024-01-10T04:17:55;64.2;49.8;30.6
74430;PMS7003;62863;52.062;23.764;2024-01-10T04:22:43;72.3;54;34.5
74430;PMS7003;62863;52.062;23.764;2024-01-10T04:27:49;68.2;55.4;33.8
74430;PMS7003;62863;52.062;23.764;2024-01-10T04:33:09;67.6;54.4;34.8
74430;PMS7003;62863;52.062;23.764;2024-01-10T04:37:49;70.4;54.6;33.6
74430;PMS7003;62863;52.062;23.764;2024-01-10T04:42:37;67.6;53.2;34.2
74430;PMS7003;62863;52.062;23.764;2024-01-10T04:47:37;67.4;52.4;33.2
74430;PMS7003;62863;52.062;23.764;2024-01-10T04:52:31;59.6;47.6;29.6
74430;PMS7003;62863;52.062;23.764;2024-01-10T04:58:07;63;50;31.4
74430;PMS7003;62863;52.062;23.764;2024-01-10T05:03:03;61;49.6;29.4
74430;PMS7003;62863;52.062;23.764;2024-01-10T05:07:55;73;56.4;33.4
74430;PMS7003;62863;52.062;23.764;2024-01-10T05:12:43;63.2;51.4;31.4
74430;PMS7003;62863;52.062;23.764;2024-01-10T05:17:37;61.8;49.2;32
74430;PMS7003;62863;52.062;23.764;2024-01-10T05:23:11;67;53;33.8
74430;PMS7003;62863;52.062;23.764;2024-01-10T05:27:49;70.2;55;34
74430;PMS7003;62863;52.062;23.764;2024-01-10T05:32:43;65.4;51.6;32.4
74430;PMS7003;62863;52.062;23.764;2024-01-10T05:38:07;55.6;46.2;30.4
74430;PMS7003;62863;52.062;23.764;2024-01-10T05:42:49;60.4;46.8;29.8
74430;PMS7003;62863;52.062;23.764;2024-01-10T05:48:09;50;39.8;25.8
74430;PMS7003;62863;52.062;23.764;2024-01-10T05:53:01;65.6;52.4;33.2
74430;PMS7003;62863;52.062;23.764;2024-01-10T05:57:57;69.8;57.2;34.4
74430;PMS7003;62863;52.062;23.764;2024-01-10T06:02:55;70;55.6;33
74430;PMS7003;62863;52.062;23.764;2024-01-10T06:07:47;58;50;31.6
74430;PMS7003;62863;52.062;23.764;2024-01-10T06:13:11;59.2;49;31.8
74430;PMS7003;62863;52.062;23.764;2024-01-10T06:17:47;61.8;50.2;32.2
74430;PMS7003;62863;52.062;23.764;2024-01-10T06:22:29;65.5;53.8;33.3
74430;PMS7003;62863;52.062;23.764;2024-01-10T06:27:49;64.4;50.2;31.6
74430;PMS7003;62863;52.062;23.764;2024-01-10T06:33:03;65.6;51.8;32
74430;PMS7003;62863;52.062;23.764;2024-01-10T06:38:11;63.2;50;31.4
74430;PMS7003;62863;52.062;23.764;2024-01-10T06:42:35;58.8;49.6;33
74430;PMS7003;62863;52.062;23.764;2024-01-10T06:48:09;60.4;47.4;29.4
74430;PMS7003;62863;52.062;23.764;2024-01-10T06:52:51;62.8;48.4;28.6
74430;PMS7003;62863;52.062;23.764;2024-01-10T06:57:49;66.8;51;33.8
74430;PMS7003;62863;52.062;23.764;2024-01-10T07:03:11;68.4;53.8;30.8
74430;PMS7003;62863;52.062;23.764;2024-01-10T07:07:35;68.4;54.4;34.8
74430;PMS7003;62863;52.062;23.764;2024-01-10T07:12:43;75.4;59.6;38
74430;PMS7003;62863;52.062;23.764;2024-01-10T07:17:47;83.4;65.2;41.6
74430;PMS7003;62863;52.062;23.764;2024-01-10T07:23:03;74.2;57.8;36.4
74430;PMS7003;62863;52.062;23.764;2024-01-10T07:28:11;64.8;52.5;34.8
74430;PMS7003;62863;52.062;23.764;2024-01-10T07:32:44;69;53;34.6
74430;PMS7003;62863;52.062;23.764;2024-01-10T07:37:57;69.5;55.5;36.3
74430;PMS7003;62863;52.062;23.764;2024-01-10T07:42:55;74.3;59.3;38.3
74430;PMS7003;62863;52.062;23.764;2024-01-10T07:47:29;75.4;59.6;37.6
74430;PMS7003;62863;52.062;23.764;2024-01-10T07:53:11;79;61;39.3
74430;PMS7003;62863;52.062;23.764;2024-01-10T07:57:45;89.2;69.2;43
74430;PMS7003;62863;52.062;23.764;2024-01-10T08:02:29;82;64.4;39
74430;PMS7003;62863;52.062;23.764;2024-01-10T08:07:29;93.8;72.6;45.2
74430;PMS7003;62863;52.062;23.764;2024-01-10T08:13:03;90.2;71.2;44
74430;PMS7003;62863;52.062;23.764;2024-01-10T08:18:09;86.6;68.6;42.6
74430;PMS7003;62863;52.062;23.764;2024-01-10T08:22:43;82.8;64;40.8
74430;PMS7003;62863;52.062;23.764;2024-01-10T08:27:57;71.8;56.6;35.4
74430;PMS7003;62863;52.062;23.764;2024-01-10T08:32:43;70.8;57.2;36
74430;PMS7003;62863;52.062;23.764;2024-01-10T08:37:49;73.6;58;37.4
74430;PMS7003;62863;52.062;23.764;2024-01-10T08:43:09;71;54.2;32.8
74430;PMS7003;62863;52.062;23.764;2024-01-10T08:47:29;70;53.2;34.8
74430;PMS7003;62863;52.062;23.764;2024-01-10T08:52:29;79.8;61.8;38.2
74430;PMS7003;62863;52.062;23.764;2024-01-10T08:57:37;73.8;56.8;32.5
74430;PMS7003;62863;52.062;23.764;2024-01-10T09:03:00;89;67.4;42
74430;PMS7003;62863;52.062;23.764;2024-01-10T09:08:11;84.6;67.2;42.8
74430;PMS7003;62863;52.062;23.764;2024-01-10T09:12:37;81.2;65.8;42
74430;PMS7003;62863;52.062;23.764;2024-01-10T09:17:59;81.6;63.8;40.6
74430;PMS7003;62863;52.062;23.764;2024-01-10T09:22:29;68.4;56;35.2
74430;PMS7003;62863;52.062;23.764;2024-01-10T09:27:29;70.2;53.6;32.4
74430;PMS7003;62863;52.062;23.764;2024-01-10T09:33:05;71.4;56.6;36.2
74430;PMS7003;62863;52.062;23.764;2024-01-10T09:37:47;68.6;55.6;33.8
74430;PMS7003;62863;52.062;23.764;2024-01-10T09:42:29;70.2;54.6;34.4
74430;PMS7003;62863;52.062;23.764;2024-01-10T09:47:37;66.8;54.2;33.2
74430;PMS7003;62863;52.062;23.764;2024-01-10T09:53:03;63.8;51;32
74430;PMS7003;62863;52.062;23.764;2024-01-10T09:58:11;69.3;51.8;31.8
74430;PMS7003;62863;52.062;23.764;2024-01-10T10:02:46;68.4;55.4;35
74430;PMS7003;62863;52.062;23.764;2024-01-10T10:07:48;62.8;50.2;32.6
74430;PMS7003;62863;52.062;23.764;2024-01-10T10:12:46;56.8;46;29.6
74430;PMS7003;62863;52.062;23.764;2024-01-10T10:17:29;53.6;44.4;27
74430;PMS7003;62863;52.062;23.764;2024-01-10T10:23:09;58;47.8;29.6
74430;PMS7003;62863;52.062;23.764;2024-01-10T10:27:37;56.4;46;29.4
74430;PMS7003;62863;52.062;23.764;2024-01-10T10:32:45;60.8;49.6;31.2
74430;PMS7003;62863;52.062;23.764;2024-01-10T10:37:37;61;50.2;33.4
74430;PMS7003;62863;52.062;23.764;2024-01-10T10:42:38;56;47.8;29
74430;PMS7003;62863;52.062;23.764;2024-01-10T10:48:11;62.4;51.8;33.2
74430;PMS7003;62863;52.062;23.764;2024-01-10T10:52:45;67;53.2;35.2
74430;PMS7003;62863;52.062;23.764;2024-01-10T10:57:59;72.8;57;37.3
74430;PMS7003;62863;52.062;23.764;2024-01-10T11:02:46;62.2;51;31.8
74430;PMS7003;62863;52.062;23.764;2024-01-10T11:07:49;65.4;51.2;34.2
74430;PMS7003;62863;52.062;23.764;2024-01-10T11:13:25;57;46;29.2
74430;PMS7003;62863;52.062;23.764;2024-01-10T11:17:53;60.6;48.4;28.8
74430;PMS7003;62863;52.062;23.764;2024-01-10T11:22:43;49;44;29
74430;PMS7003;62863;52.062;23.764;2024-01-10T11:27:45;51.2;43.2;28
74430;PMS7003;62863;52.062;23.764;2024-01-10T11:33:19;50.6;43.6;27.6
74430;PMS7003;62863;52.062;23.764;2024-01-10T11:38:11;47.4;40.4;26
74430;PMS7003;62863;52.062;23.764;2024-01-10T11:42:40;45.4;39.2;24.8
74430;PMS7003;62863;52.062;23.764;2024-01-10T11:47:57;47.2;39.8;25.6
74430;PMS7003;62863;52.062;23.764;2024-01-10T11:52:36;41.2;34.6;24.4
74430;PMS7003;62863;52.062;23.764;2024-01-10T11:57:28;54.5;46;29.3
74430;PMS7003;62863;52.062;23.764;2024-01-10T12:03:06;52.4;45.4;28.2
74430;PMS7003;62863;52.062;23.764;2024-01-10T12:07:35;59.8;45.8;27.2
74430;PMS7003;62863;52.062;23.764;2024-01-10T12:12:57;51;42.6;26.2
74430;PMS7003;62863;52.062;23.764;2024-01-10T12:17:29;48.2;41.8;26.2
74430;PMS7003;62863;52.062;23.764;2024-01-10T12:22:37;50.6;42.2;27.2
74430;PMS7003;62863;52.062;23.764;2024-01-10T12:28:09;48;41.2;25
74430;PMS7003;62863;52.062;23.764;2024-01-10T12:32:43;42.8;37.2;23.4
74430;PMS7003;62863;52.062;23.764;2024-01-10T12:37:52;41;36.6;22.4
74430;PMS7003;62863;52.062;23.764;2024-01-10T12:42:29;51.8;44.8;27.6
74430;PMS7003;62863;52.062;23.764;2024-01-10T12:47:59;51.4;43.8;27.6
74430;PMS7003;62863;52.062;23.764;2024-01-10T12:53:09;44;37.4;24
74430;PMS7003;62863;52.062;23.764;2024-01-10T12:57:43;52.5;44;26.8
74430;PMS7003;62863;52.062;23.764;2024-01-10T13:02:29;57.4;47;29.4
74430;PMS7003;62863;52.062;23.764;2024-01-10T13:07:29;45.8;39.2;26.6
74430;PMS7003;62863;52.062;23.764;2024-01-10T13:12:59;50.4;43.6;27.2
74430;PMS7003;62863;52.062;23.764;2024-01-10T13:18:09;56.6;46.6;29.2
74430;PMS7003;62863;52.062;23.764;2024-01-10T13:22:29;61.4;49;30
74430;PMS7003;62863;52.062;23.764;2024-01-10T13:27:55;62.8;48.8;28.6
74430;PMS7003;62863;52.062;23.764;2024-01-10T13:32:49;83;64.2;40.2
74430;PMS7003;62863;52.062;23.764;2024-01-10T13:37:41;76;59.8;37
74430;PMS7003;62863;52.062;23.764;2024-01-10T13:43:09;71;54.8;34.4
74430;PMS7003;62863;52.062;23.764;2024-01-10T13:47:34;76.2;59.4;36.4
74430;PMS7003;62863;52.062;23.764;2024-01-10T13:52:37;76;59;36.4
74430;PMS7003;62863;52.062;23.764;2024-01-10T13:57:37;72.8;58;36
74430;PMS7003;62863;52.062;23.764;2024-01-10T14:02:57;79.8;62;38
74430;PMS7003;62863;52.062;23.764;2024-01-10T14:08:10;77.2;60.8;36.6
74430;PMS7003;62863;52.062;23.764;2024-01-10T14:12:29;76.4;60.2;37.4
74430;PMS7003;62863;52.062;23.764;2024-01-10T14:17:57;80;63.2;38.8
74430;PMS7003;62863;52.062;23.764;2024-01-10T14:22:36;86;67;42
74430;PMS7003;62863;52.062;23.764;2024-01-10T14:27:47;90.2;68.6;42
74430;PMS7003;62863;52.062;23.764;2024-01-10T14:33:07;90;68.8;44
74430;PMS7003;62863;52.062;23.764;2024-01-10T14:37:53;100.4;74.8;46.8
74430;PMS7003;62863;52.062;23.764;2024-01-10T14:42:29;86.8;68;41.4
74430;PMS7003;62863;52.062;23.764;2024-01-10T14:47:35;82.6;63.6;39.8
74430;PMS7003;62863;52.062;23.764;2024-01-10T14:52:57;86.8;66.8;41.4
74430;PMS7003;62863;52.062;23.764;2024-01-10T14:58:10;79.8;63.2;39.4
74430;PMS7003;62863;52.062;23.764;2024-01-10T15:02:43;76.5;60.5;37.8
74430;PMS7003;62863;52.062;23.764;2024-01-10T15:07:32;77.2;60.4;37.6
74430;PMS7003;62863;52.062;23.764;2024-01-10T15:12:41;78.8;60.2;38.6
74430;PMS7003;62863;52.062;23.764;2024-01-10T15:17:47;81.8;63.6;40.4
74430;PMS7003;62863;52.062;23.764;2024-01-10T15:22:49;84.2;65.4;40
74430;PMS7003;62863;52.062;23.764;2024-01-10T15:27:35;84.4;66.2;42.4
74430;PMS7003;62863;52.062;23.764;2024-01-10T15:32:35;94.2;71.8;43.6
74430;PMS7003;62863;52.062;23.764;2024-01-10T15:38:07;91.6;68.8;43.6
74430;PMS7003;62863;52.062;23.764;2024-01-10T15:42:54;84.2;66.6;41
74430;PMS7003;62863;52.062;23.764;2024-01-10T15:48:11;81.2;63.4;39.2
74430;PMS7003;62863;52.062;23.764;2024-01-10T15:53:09;84.6;67.2;41.2
74430;PMS7003;62863;52.062;23.764;2024-01-10T15:57:57;80.8;64;40.2
74430;PMS7003;62863;52.062;23.764;2024-01-10T16:03:00;86;67.5;41.5
74430;PMS7003;62863;52.062;23.764;2024-01-10T16:07:30;91.8;69.4;43.8
74430;PMS7003;62863;52.062;23.764;2024-01-10T16:12:58;92;70.6;43.8
74430;PMS7003;62863;52.062;23.764;2024-01-10T16:17:37;89.6;69.4;44.4
74430;PMS7003;62863;52.062;23.764;2024-01-10T16:23:00;92.6;71;45.2
74430;PMS7003;62863;52.062;23.764;2024-01-10T16:28:09;93.6;70.8;43.2
74430;PMS7003;62863;52.062;23.764;2024-01-10T16:32:46;89.4;66.8;40.8
74430;PMS7003;62863;52.062;23.764;2024-01-10T16:38:10;86.8;67.2;38
74430;PMS7003;62863;52.062;23.764;2024-01-10T16:43:09;92.8;70.4;44
74430;PMS7003;62863;52.062;23.764;2024-01-10T16:47:58;83.8;63.8;39.6
74430;PMS7003;62863;52.062;23.764;2024-01-10T16:52:52;92.2;71.4;43.4
74430;PMS7003;62863;52.062;23.764;2024-01-10T16:57:49;94.4;71.6;44.6
74430;PMS7003;62863;52.062;23.764;2024-01-10T17:02:58;95.3;73.8;44.3
74430;PMS7003;62863;52.062;23.764;2024-01-10T17:07:38;91.6;69.6;42.8
74430;PMS7003;62863;52.062;23.764;2024-01-10T17:12:30;90;70;44
74430;PMS7003;62863;52.062;23.764;2024-01-10T17:18:08;92.8;70.8;42.6
74430;PMS7003;62863;52.062;23.764;2024-01-10T17:22:38;92.6;69.2;44.8
74430;PMS7003;62863;52.062;23.764;2024-01-10T17:28:08;91;70;43
74430;PMS7003;62863;52.062;23.764;2024-01-10T17:33:08;96.2;72.8;43.8
74430;PMS7003;62863;52.062;23.764;2024-01-10T17:37:59;89;65.6;42.6
74430;PMS7003;62863;52.062;23.764;2024-01-10T17:42:58;93;70;43.8
74430;PMS7003;62863;52.062;23.764;2024-01-10T17:47:46;90;67.6;42.6
74430;PMS7003;62863;52.062;23.764;2024-01-10T17:52:46;88.8;70;43.4
74430;PMS7003;62863;52.062;23.764;2024-01-10T17:57:46;89.8;67.2;41.6
74430;PMS7003;62863;52.062;23.764;2024-01-10T18:02:30;87.5;67.3;41.5
74430;PMS7003;62863;52.062;23.764;2024-01-10T18:08:10;86.4;67;40.6
74430;PMS7003;62863;52.062;23.764;2024-01-10T18:12:46;87.2;67.2;41.6
74430;PMS7003;62863;52.062;23.764;2024-01-10T18:18:08;83.8;64.4;40.2
74430;PMS7003;62863;52.062;23.764;2024-01-10T18:23:04;79.2;62.4;38.8
74430;PMS7003;62863;52.062;23.764;2024-01-10T18:27:46;80.2;64;39.4
74430;PMS7003;62863;52.062;23.764;2024-01-10T18:32:58;81.2;62.6;39.4
74430;PMS7003;62863;52.062;23.764;2024-01-10T18:37:42;83.2;64.2;40.6
74430;PMS7003;62863;52.062;23.764;2024-01-10T18:42:58;81.4;63.6;40
74430;PMS7003;62863;52.062;23.764;2024-01-10T18:47:30;83.8;65;41
74430;PMS7003;62863;52.062;23.764;2024-01-10T18:52:30;86.8;64.2;39.8
74430;PMS7003;62863;52.062;23.764;2024-01-10T18:58:10;81.4;63.8;39.2
74430;PMS7003;62863;52.062;23.764;2024-01-10T19:02:38;79.4;62.6;38.4
74430;PMS7003;62863;52.062;23.764;2024-01-10T19:08:10;80;60.5;37.5
74430;PMS7003;62863;52.062;23.764;2024-01-10T19:13:12;84.4;64.8;40.4
74430;PMS7003;62863;52.062;23.764;2024-01-10T19:17:46;73.2;59.2;36.2
74430;PMS7003;62863;52.062;23.764;2024-01-10T19:22:58;81.2;61.8;38
74430;PMS7003;62863;52.062;23.764;2024-01-10T19:27:48;78.4;59.6;37.4
74430;PMS7003;62863;52.062;23.764;2024-01-10T19:32:58;76.2;60.6;36.6
74430;PMS7003;62863;52.062;23.764;2024-01-10T19:37:38;81.6;63;39.6
74430;PMS7003;62863;52.062;23.764;2024-01-10T19:42:42;84;64.2;40.2
74430;PMS7003;62863;52.062;23.764;2024-01-10T19:48:08;82.6;63.2;38.8
74430;PMS7003;62863;52.062;23.764;2024-01-10T19:52:46;78.4;62;37.6
74430;PMS7003;62863;52.062;23.764;2024-01-10T19:58:10;86.8;67.6;41.8
74430;PMS7003;62863;52.062;23.764;2024-01-10T20:02:54;82;63.2;40
74430;PMS7003;62863;52.062;23.764;2024-01-10T20:08:10;80.8;61.5;39
74430;PMS7003;62863;52.062;23.764;2024-01-10T20:13:12;72.6;56.4;34.6
74430;PMS7003;62863;52.062;23.764;2024-01-10T20:17:28;83.2;61.8;39.2
74430;PMS7003;62863;52.062;23.764;2024-01-10T20:22:48;77.8;60;37.6
74430;PMS7003;62863;52.062;23.764;2024-01-10T20:27:34;79;62.6;38
74430;PMS7003;62863;52.062;23.764;2024-01-10T20:32:36;74.6;58.8;34.8
74430;PMS7003;62863;52.062;23.764;2024-01-10T20:37:54;76.4;58.2;35.6
74430;PMS7003;62863;52.062;23.764;2024-01-10T20:42:44;72;55.6;35.4
74430;PMS7003;62863;52.062;23.764;2024-01-10T20:48:08;64.2;51.4;31.2
74430;PMS7003;62863;52.062;23.764;2024-01-10T20:52:44;62.6;50.8;32
74430;PMS7003;62863;52.062;23.764;2024-01-10T20:57:56;70.8;54;32.8
74430;PMS7003;62863;52.062;23.764;2024-01-10T21:03:10;68;55;32.2
74430;PMS7003;62863;52.062;23.764;2024-01-10T21:07:58;67;49.5;30.5
74430;PMS7003;62863;52.062;23.764;2024-01-10T21:13:10;67;53.6;32.6
74430;PMS7003;62863;52.062;23.764;2024-01-10T21:18:04;81.4;60.8;35.4
74430;PMS7003;62863;52.062;23.764;2024-01-10T21:22:58;69.8;55;32.4
74430;PMS7003;62863;52.062;23.764;2024-01-10T21:27:40;63.4;52.2;32
74430;PMS7003;62863;52.062;23.764;2024-01-10T21:32:48;66.6;52.4;31.6
74430;PMS7003;62863;52.062;23.764;2024-01-10T21:37:58;63;51.4;31.8
74430;PMS7003;62863;52.062;23.764;2024-01-10T21:42:56;64.4;50.8;30.2
74430;PMS7003;62863;52.062;23.764;2024-01-10T21:48:10;62;50.2;30.6
74430;PMS7003;62863;52.062;23.764;2024-01-10T21:53:10;61.6;48.4;28.6
74430;PMS7003;62863;52.062;23.764;2024-01-10T21:57:50;58.4;47;29.6
74430;PMS7003;62863;52.062;23.764;2024-01-10T22:02:38;59.8;45.6;26.2
74430;PMS7003;62863;52.062;23.764;2024-01-10T22:07:48;50.5;41.8;23.3
74430;PMS7003;62863;52.062;23.764;2024-01-10T22:12:30;55.2;46;27.4
74430;PMS7003;62863;52.062;23.764;2024-01-10T22:17:56;57;46.6;27.8
74430;PMS7003;62863;52.062;23.764;2024-01-10T22:22:48;60.8;48.8;29.4
74430;PMS7003;62863;52.062;23.764;2024-01-10T22:28:10;66.6;51.2;30.8
74430;PMS7003;62863;52.062;23.764;2024-01-10T22:33:10;60.6;48;30
74430;PMS7003;62863;52.062;23.764;2024-01-10T22:38:10;62.6;47.4;29.4
74430;PMS7003;62863;52.062;23.764;2024-01-10T22:43:08;56.6;46.6;28.4
74430;PMS7003;62863;52.062;23.764;2024-01-10T22:47:58;58.4;47.2;29.2
74430;PMS7003;62863;52.062;23.764;2024-01-10T22:52:50;61.2;49;29.8
74430;PMS7003;62863;52.062;23.764;2024-01-10T22:57:30;56.2;45.2;27.4
74430;PMS7003;62863;52.062;23.764;2024-01-10T23:02:36;53.2;44.6;27.6
74430;PMS7003;62863;52.062;23.764;2024-01-10T23:07:56;48.3;42.3;26.8
74430;PMS7003;62863;52.062;23.764;2024-01-10T23:12:48;53.2;44.2;27
74430;PMS7003;62863;52.062;23.764;2024-01-10T23:18:10;63.2;48.6;30
74430;PMS7003;62863;52.062;23.764;2024-01-10T23:22:56;71.6;55.6;33.4
74430;PMS7003;62863;52.062;23.764;2024-01-10T23:28:10;54.8;45.6;26.8
74430;PMS7003;62863;52.062;23.764;2024-01-10T23:33:08;53.4;44.2;26.4
74430;PMS7003;62863;52.062;23.764;2024-01-10T23:37:50;45.2;35.2;19.4
74430;PMS7003;62863;52.062;23.764;2024-01-10T23:42:38;49.8;41.8;23.6
74430;PMS7003;62863;52.062;23.764;2024-01-10T23:47:30;44.6;37.8;22.6
74430;PMS7003;62863;52.062;23.764;2024-01-10T23:52:36;43.2;37;22.2
74430;PMS7003;62863;52.062;23.764;2024-01-10T23:58:08;45.6;39.6;24.8
